Time;durP1;ratioP1;P1;durP2;ratioP2;P2;SDS_P1;SDS_P2;PMS_P1;PMS_P2;Temp;Humidity;BMP_temperature;BMP_pressure;BME280_temperature;BME280_humidity;BME280_pressure;Samples;Min_cycle;Max_cycle;Signal;HPM_P1;HPM_P2
2023/04/23 15:49:10;;;;;;;2.33;1.38;;;16.10;97.40;;;;;;5106390;27;20327;-61
2023/04/23 15:55:22;;;;;;;4.68;1.70;;;15.20;99.90;;;;;;5135564;27;20372;-61
2023/04/23 15:57:48;;;;;;;3.05;1.58;;;15.10;99.90;;;;;;5118163;28;20129;-59
2023/04/23 16:00:15;;;;;;;2.58;1.55;;;15.00;99.90;;;;;;5119005;28;20527;-59
2023/04/23 16:02:41;;;;;;;6.25;1.88;;;14.80;99.90;;;;;;5109940;28;20111;-63
2023/04/23 16:05:07;;;;;;;6.18;2.30;;;14.70;99.90;;;;;;5125068;28;20102;-60
2023/04/23 16:07:32;;;;;;;5.57;1.92;;;14.60;99.90;;;;;;5107452;28;20027;-60
2023/04/23 16:09:58;;;;;;;4.03;2.08;;;14.60;99.90;;;;;;5108046;28;20118;-60
2023/04/23 16:12:24;;;;;;;7.95;2.05;;;14.60;99.90;;;;;;5098201;28;20434;-62
2023/04/23 16:14:49;;;;;;;5.97;1.70;;;14.60;99.90;;;;;;5125906;28;20027;-61
2023/04/23 16:17:15;;;;;;;3.63;1.67;;;14.60;99.90;;;;;;5108062;28;20023;-62
2023/04/23 16:19:40;;;;;;;3.20;1.80;;;14.50;99.90;;;;;;5108543;28;20485;-62
2023/04/23 16:22:06;;;;;;;5.03;1.50;;;14.50;99.90;;;;;;5108160;28;20028;-62
2023/04/23 16:24:32;;;;;;;4.75;1.92;;;14.50;99.90;;;;;;5108562;28;20091;-62
2023/04/23 16:26:57;;;;;;;3.80;1.80;;;14.50;99.90;;;;;;5108802;28;20051;-62
2023/04/23 16:29:23;;;;;;;5.05;2.42;;;14.40;99.90;;;;;;5123448;28;20394;-62
2023/04/23 16:31:49;;;;;;;2.13;1.48;;;14.40;99.90;;;;;;5108473;28;20062;-61
2023/04/23 16:34:15;;;;;;;5.38;1.58;;;14.40;99.90;;;;;;5107893;28;20032;-60
2023/04/23 16:36:40;;;;;;;3.30;1.65;;;14.30;99.90;;;;;;5116956;28;20061;-62
2023/04/23 16:39:06;;;;;;;5.55;2.05;;;14.30;99.90;;;;;;5110554;28;20028;-62
2023/04/23 16:41:32;;;;;;;2.83;1.63;;;14.20;99.90;;;;;;5108037;28;20095;-61
2023/04/23 16:43:58;;;;;;;5.10;2.20;;;14.20;99.90;;;;;;5107845;28;20059;-61
2023/04/23 16:46:26;;;;;;;7.57;3.47;;;14.30;99.90;;;;;;5107832;28;20035;-62
2023/04/23 16:48:51;;;;;;;5.72;3.67;;;14.20;99.90;;;;;;5115667;28;20527;-64
2023/04/23 16:51:17;;;;;;;11.27;8.02;;;14.20;99.90;;;;;;5109386;28;20040;-63
2023/04/23 16:53:43;;;;;;;7.15;3.88;;;14.30;99.90;;;;;;5089938;28;20142;-61
2023/04/23 16:56:08;;;;;;;6.78;5.25;;;14.30;99.90;;;;;;5097845;28;20020;-61
2023/04/23 16:58:34;;;;;;;9.73;6.18;;;14.30;99.90;;;;;;5111198;28;20024;-61
2023/04/23 17:01:00;;;;;;;10.50;9.40;;;14.30;99.90;;;;;;5120566;28;20020;-61
2023/04/23 17:03:26;;;;;;;6.93;3.70;;;14.30;99.90;;;;;;5117676;28;20034;-61
2023/04/23 17:05:58;;;;;;;4.00;2.00;;;14.30;99.90;;;;;;5100285;28;20700;-62
2023/04/23 17:08:24;;;;;;;4.47;2.50;;;14.30;99.90;;;;;;5113165;28;20042;-61
2023/04/23 17:10:51;;;;;;;2.30;1.73;;;14.30;99.90;;;;;;5113258;28;20012;-62
2023/04/23 17:13:16;;;;;;;5.13;2.60;;;14.30;99.90;;;;;;5090355;28;20076;-63
2023/04/23 17:15:42;;;;;;;33.63;23.77;;;14.30;99.90;;;;;;5071421;28;20505;-61
2023/04/23 17:18:07;;;;;;;8.18;4.00;;;14.30;99.90;;;;;;5529561;22;20658;-63
2023/04/23 17:20:34;;;;;;;5.20;2.33;;;14.30;99.90;;;;;;5044191;28;20020;-63
2023/04/23 17:23:00;;;;;;;5.70;3.60;;;14.30;99.90;;;;;;5052354;28;20036;-61
2023/04/23 17:25:26;;;;;;;5.18;2.22;;;14.30;99.90;;;;;;5053018;28;20386;-62
2023/04/23 17:27:52;;;;;;;4.10;2.58;;;14.30;99.90;;;;;;5052282;28;20051;-61
2023/04/23 17:30:17;;;;;;;2.72;1.90;;;14.30;99.90;;;;;;5051110;28;20036;-61
2023/04/23 17:32:43;;;;;;;3.72;2.03;;;14.30;99.90;;;;;;5052031;28;20037;-61
2023/04/23 17:35:09;;;;;;;4.30;2.00;;;14.20;99.90;;;;;;5051882;28;20164;-61
2023/04/23 17:37:34;;;;;;;1.92;1.30;;;14.20;99.90;;;;;;5052724;28;20373;-62
2023/04/23 17:40:00;;;;;;;4.63;1.77;;;14.20;99.90;;;;;;5067216;28;20029;-61
2023/04/23 17:42:25;;;;;;;4.45;1.73;;;14.10;99.90;;;;;;5052817;28;20383;-62
2023/04/23 17:44:51;;;;;;;3.53;2.10;;;14.10;99.90;;;;;;5034943;28;20040;-61
2023/04/23 17:47:17;;;;;;;4.03;1.70;;;14.10;99.90;;;;;;5034698;28;20028;-61
2023/04/23 19:01:39;;;;;;;6.75;3.50;;;12.30;99.90;;;;;;5044859;27;1920861;-63
2023/04/23 19:04:05;;;;;;;5.93;3.63;;;12.30;99.90;;;;;;5071439;28;20033;-63
2023/04/23 19:06:33;;;;;;;7.93;4.57;;;12.40;99.90;;;;;;5070038;28;20044;-63
2023/04/23 19:09:00;;;;;;;8.02;4.03;;;12.50;99.90;;;;;;5069252;28;20052;-64
2023/04/23 19:11:28;;;;;;;6.88;3.22;;;12.50;99.90;;;;;;5051568;28;20021;-63
2023/04/23 19:13:54;;;;;;;6.82;2.90;;;12.60;99.90;;;;;;5068208;28;20100;-63
2023/04/23 19:16:20;;;;;;;7.70;3.25;;;12.70;99.90;;;;;;5069016;28;20052;-63
2023/04/23 19:18:46;;;;;;;5.15;2.90;;;12.60;99.90;;;;;;5086879;28;20021;-63
2023/04/23 19:21:12;;;;;;;5.43;3.10;;;12.70;99.90;;;;;;5087049;28;20055;-63
2023/04/23 19:23:38;;;;;;;6.95;4.78;;;12.70;99.90;;;;;;5088465;28;20535;-66
2023/04/23 19:26:03;;;;;;;7.07;4.10;;;12.80;99.90;;;;;;5088370;28;20472;-64
2023/04/23 19:28:29;;;;;;;6.53;4.97;;;12.80;99.90;;;;;;5088752;28;20028;-65
2023/04/23 19:30:56;;;;;;;8.45;4.07;;;12.80;99.90;;;;;;5084065;28;20483;-66
2023/04/23 19:33:22;;;;;;;5.82;4.07;;;12.80;99.90;;;;;;5087608;28;20085;-65
2023/04/23 19:35:48;;;;;;;8.98;4.28;;;12.80;99.90;;;;;;5068307;28;20036;-65
2023/04/23 19:38:13;;;;;;;5.47;3.55;;;12.80;99.90;;;;;;5068458;28;20120;-63
2023/04/23 19:40:40;;;;;;;5.93;3.60;;;12.80;99.90;;;;;;5067260;28;20029;-64
2023/04/23 19:43:05;;;;;;;6.60;3.70;;;12.70;99.90;;;;;;5087788;28;20521;-66
2023/04/23 19:45:32;;;;;;;5.72;3.85;;;12.70;99.90;;;;;;5088764;28;20033;-65
2023/04/23 19:47:59;;;;;;;7.45;4.25;;;12.70;99.90;;;;;;5087729;28;20077;-63
2023/04/23 19:50:25;;;;;;;6.90;4.35;;;12.70;99.90;;;;;;5088462;28;20028;-63
2023/04/23 19:52:51;;;;;;;8.40;4.75;;;12.70;99.90;;;;;;5088170;28;20025;-63
2023/04/23 19:55:19;;;;;;;9.18;5.00;;;12.60;99.90;;;;;;5074498;28;20035;-64
2023/04/23 19:57:45;;;;;;;9.02;4.68;;;12.70;99.90;;;;;;5067769;28;20024;-64
